Time;durP1;ratioP1;P1;durP2;ratioP2;P2;SDS_P1;SDS_P2;PMS_P1;PMS_P2;Temp;Humidity;BMP_temperature;BMP_pressure;BME280_temperature;BME280_humidity;BME280_pressure;Samples;Min_cycle;Max_cycle;Signal;HPM_P1;HPM_P2
2021/03/08 00:01:33;;;;;;;31.67;15.90;;;;;;;3.50;72.86;101313.09;5090473;28;20270;-67
2021/03/08 00:03:59;;;;;;;31.37;16.60;;;;;;;3.49;74.00;101312.22;5086802;28;20288;-65
2021/03/08 00:06:24;;;;;;;31.73;17.27;;;;;;;3.48;73.35;101310.50;5085363;28;20200;-65
2021/03/08 00:08:50;;;;;;;25.87;16.17;;;;;;;3.47;73.69;101311.41;5092143;28;20230;-65
2021/03/08 00:11:17;;;;;;;33.17;16.50;;;;;;;3.46;73.46;101312.31;5091041;28;20204;-65
2021/03/08 00:13:43;;;;;;;27.80;16.17;;;;;;;3.44;74.30;101303.56;5084073;28;20238;-65
2021/03/08 00:16:09;;;;;;;25.47;15.13;;;;;;;3.45;74.37;101310.56;5092416;28;20290;-67
2021/03/08 00:18:35;;;;;;;33.63;17.00;;;;;;;3.43;74.92;101312.38;5085931;28;20250;-65
2021/03/08 00:21:01;;;;;;;26.37;14.87;;;;;;;3.42;74.43;101309.78;5085943;28;20713;-66
2021/03/08 00:23:27;;;;;;;25.63;14.97;;;;;;;3.41;74.96;101308.03;5086769;28;20200;-66
2021/03/08 00:25:53;;;;;;;29.10;15.90;;;;;;;3.40;74.78;101315.06;5092034;28;20265;-66
2021/03/08 00:28:20;;;;;;;26.30;15.37;;;;;;;3.39;74.74;101312.50;5091591;28;20223;-66
2021/03/08 00:30:46;;;;;;;30.03;16.73;;;;;;;3.37;75.62;101317.78;5088168;28;20212;-65
2021/03/08 00:33:12;;;;;;;31.37;15.07;;;;;;;3.35;75.84;101311.69;5085489;28;20212;-65
2021/03/08 00:35:38;;;;;;;29.83;16.73;;;;;;;3.36;75.78;101317.84;5091544;28;20258;-66
2021/03/08 00:38:04;;;;;;;25.57;15.13;;;;;;;3.33;75.65;101318.75;5090657;28;20295;-66
2021/03/08 00:40:30;;;;;;;30.23;14.60;;;;;;;3.31;76.26;101315.28;5086967;28;20243;-65
2021/03/08 00:42:56;;;;;;;28.07;15.60;;;;;;;3.30;76.33;101310.94;5071514;28;20777;-68
2021/03/08 00:45:24;;;;;;;28.33;15.70;;;;;;;3.28;76.04;101318.00;5092074;28;20219;-66
2021/03/08 00:47:50;;;;;;;29.50;16.13;;;;;;;3.30;76.52;101317.97;5084924;28;20201;-65
2021/03/08 00:50:18;;;;;;;29.33;15.83;;;;;;;3.28;76.03;101312.72;5083087;28;20696;-66
2021/03/08 00:52:45;;;;;;;25.63;15.23;;;;;;;3.27;76.47;101320.66;5085154;28;20197;-66
2021/03/08 00:55:12;;;;;;;30.47;16.67;;;;;;;3.26;76.27;101313.66;5085696;28;20223;-66
2021/03/08 00:57:38;;;;;;;29.97;16.93;;;;;;;3.25;76.33;101318.06;5083114;28;20212;-65
2021/03/08 01:00:06;;;;;;;27.80;16.10;;;;;;;3.25;76.56;101314.56;5091133;28;20619;-65
2021/03/08 01:02:33;;;;;;;30.13;16.70;;;;;;;3.22;76.57;101315.53;5086986;28;20572;-65
2021/03/08 01:04:59;;;;;;;30.90;17.00;;;;;;;3.22;76.60;101304.13;5079832;28;20216;-68
2021/03/08 01:07:25;;;;;;;33.27;18.63;;;;;;;3.20;76.83;101309.41;5083335;28;20227;-65
2021/03/08 01:09:52;;;;;;;39.47;18.37;;;;;;;3.19;77.38;101310.31;5083499;28;20220;-68
2021/03/08 01:12:18;;;;;;;29.97;15.80;;;;;;;3.15;76.88;101308.66;5088546;28;20207;-65
2021/03/08 01:14:44;;;;;;;24.70;13.63;;;;;;;3.13;77.03;101313.06;5079219;28;20212;-66
2021/03/08 01:17:10;;;;;;;23.57;13.43;;;;;;;3.08;77.60;101309.66;5084714;28;20207;-68
2021/03/08 01:19:37;;;;;;;21.93;12.63;;;;;;;3.04;77.32;101315.94;5087406;28;20224;-66
2021/03/08 01:22:04;;;;;;;25.90;11.23;;;;;;;3.01;77.93;101310.72;5083991;28;20986;-65
2021/03/08 01:24:30;;;;;;;24.03;11.70;;;;;;;2.96;77.23;101309.94;5081997;28;20533;-68
2021/03/08 01:26:56;;;;;;;18.67;10.27;;;;;;;2.94;77.07;101311.75;5082065;28;20207;-65
2021/03/08 01:29:22;;;;;;;16.23;6.83;;;;;;;2.90;77.25;101320.59;5090599;28;20311;-65
2021/03/08 01:31:48;;;;;;;13.60;6.33;;;;;;;2.85;77.31;101319.84;5084422;28;20234;-68
2021/03/08 01:34:14;;;;;;;14.57;5.60;;;;;;;2.81;77.46;101316.41;5089507;28;20704;-65
2021/03/08 01:36:41;;;;;;;14.20;5.10;;;;;;;2.75;77.75;101306.88;5080032;28;20212;-65
2021/03/08 01:39:07;;;;;;;12.97;4.70;;;;;;;2.73;76.87;101303.41;5078714;28;20239;-65
2021/03/08 01:41:33;;;;;;;9.80;4.37;;;;;;;2.70;77.63;101308.72;5080862;28;20229;-65
2021/03/08 01:43:59;;;;;;;9.83;4.70;;;;;;;2.70;77.03;101313.09;5089346;28;20219;-68
2021/03/08 01:46:25;;;;;;;14.20;4.37;;;;;;;2.67;76.89;101313.19;5090354;28;20693;-65
2021/03/08 01:48:52;;;;;;;9.50;3.77;;;;;;;2.66;77.71;101317.59;5078031;28;20278;-65
2021/03/08 01:51:19;;;;;;;9.93;4.53;;;;;;;2.63;77.50;101317.66;5086925;28;20200;-67
2021/03/08 01:53:46;;;;;;;8.63;3.83;;;;;;;2.63;77.33;101316.78;5077255;28;20200;-65
2021/03/08 01:56:12;;;;;;;14.67;4.50;;;;;;;2.62;76.71;101322.94;5072234;28;20667;-67
2021/03/08 01:58:39;;;;;;;12.30;4.93;;;;;;;2.60;76.89;101317.72;5085024;28;20227;-65
2021/03/08 02:01:06;;;;;;;12.77;3.73;;;;;;;2.58;77.39;101316.88;5084905;28;20615;-68
2021/03/08 02:03:32;;;;;;;9.90;3.87;;;;;;;2.55;76.74;101316.91;5072790;28;20216;-65
2021/03/08 02:05:58;;;;;;;16.67;3.47;;;;;;;2.55;77.09;101321.31;5086297;28;20583;-67
2021/03/08 02:08:26;;;;;;;11.50;3.37;;;;;;;2.53;76.75;101313.44;5089880;28;20200;-65
2021/03/08 02:10:53;;;;;;;12.67;3.20;;;;;;;2.51;77.48;101317.03;5086632;28;20246;-67
2021/03/08 02:13:31;;;;;;;13.30;3.67;;;;;;;2.47;77.38;101316.22;5083853;28;20215;-65
2021/03/08 02:16:02;;;;;;;13.80;3.30;;;;;;;2.44;76.90;101319.78;5089545;28;20204;-65
2021/03/08 02:18:38;;;;;;;9.30;3.53;;;;;;;2.47;77.00;101320.63;5082231;28;20207;-65
2021/03/08 02:21:21;;;;;;;9.70;3.57;;;;;;;2.44;77.62;101314.50;5079808;28;20247;-65
2021/03/08 02:24:22;;;;;;;12.53;3.80;;;;;;;2.44;77.82;101317.16;5088125;28;20208;-67
2021/03/08 02:26:51;;;;;;;11.17;3.43;;;;;;;2.43;77.50;101325.06;5087785;28;20205;-67
2021/03/08 02:29:52;;;;;;;9.90;3.80;;;;;;;2.41;77.71;101311.06;5088925;28;20593;-65
2021/03/08 02:32:21;;;;;;;13.07;4.17;;;;;;;2.39;77.89;101308.47;5073417;28;20669;-65
2021/03/08 02:34:50;;;;;;;12.60;3.30;;;;;;;2.40;77.58;101315.47;5084370;28;20208;-65
2021/03/08 02:37:20;;;;;;;10.33;3.30;;;;;;;2.40;77.58;101315.47;5078364;28;20212;-67
2021/03/08 02:39:51;;;;;;;12.70;3.60;;;;;;;2.40;77.75;101311.97;5079852;28;20235;-67
2021/03/08 02:42:22;;;;;;;8.07;3.27;;;;;;;2.40;78.16;101319.84;5075337;28;20453;-65
2021/03/08 02:44:54;;;;;;;11.87;4.17;;;;;;;2.40;78.10;101310.22;5078628;28;20665;-67
2021/03/08 02:47:23;;;;;;;12.87;2.97;;;;;;;2.41;77.97;101300.56;5089568;28;20200;-65
2021/03/08 02:49:52;;;;;;;13.50;3.30;;;;;;;2.42;78.42;101320.69;5077756;28;20221;-68
2021/03/08 02:52:20;;;;;;;11.80;3.40;;;;;;;2.41;78.53;101311.94;5087961;28;20227;-65
2021/03/08 02:54:52;;;;;;;10.37;3.00;;;;;;;2.39;78.39;101313.72;5072958;28;20197;-65
2021/03/08 02:57:21;;;;;;;12.17;3.47;;;;;;;2.39;77.95;101312.84;5080701;28;20207;-67
2021/03/08 02:59:51;;;;;;;11.07;2.77;;;;;;;2.37;78.47;101315.50;5088967;28;20220;-67
2021/03/08 03:02:19;;;;;;;12.77;2.83;;;;;;;2.37;78.00;101310.25;5083565;28;20236;-65
2021/03/08 03:04:49;;;;;;;14.80;3.40;;;;;;;2.37;78.61;101314.66;5083674;28;20588;-65
2021/03/08 03:07:17;;;;;;;9.43;3.33;;;;;;;2.36;78.46;101320.81;5085191;28;20237;-65
2021/03/08 03:09:45;;;;;;;14.10;3.40;;;;;;;2.36;78.13;101320.81;5083586;28;20448;-65
2021/03/08 03:12:14;;;;;;;10.67;3.27;;;;;;;2.34;78.59;101317.34;5077248;28;20204;-65
2021/03/08 03:14:42;;;;;;;13.33;3.10;;;;;;;2.33;78.34;101323.50;5080454;28;20196;-68
2021/03/08 03:17:11;;;;;;;10.10;3.00;;;;;;;2.34;78.11;101330.47;5082303;28;20693;-67
2021/03/08 03:19:42;;;;;;;13.30;3.23;;;;;;;2.34;78.18;101325.22;5083352;28;20224;-64
2021/03/08 03:22:10;;;;;;;9.70;2.47;;;;;;;2.34;78.36;101327.84;5082773;28;20235;-67
2021/03/08 03:24:38;;;;;;;16.70;2.83;;;;;;;2.33;78.10;101329.59;5079497;28;20204;-67
2021/03/08 03:27:05;;;;;;;11.90;2.97;;;;;;;2.30;78.12;101326.19;5089392;28;20615;-67
2021/03/08 03:29:33;;;;;;;11.70;3.00;;;;;;;2.29;78.55;101330.59;5079469;28;20573;-67
2021/03/08 03:32:01;;;;;;;10.43;3.23;;;;;;;2.28;78.32;101330.59;5079939;28;20242;-67
2021/03/08 03:34:28;;;;;;;12.27;3.03;;;;;;;2.27;78.19;101334.13;5082586;28;20204;-67
2021/03/08 03:36:54;;;;;;;12.50;3.30;;;;;;;2.25;77.87;101342.03;5090321;28;20209;-67
2021/03/08 03:39:23;;;;;;;10.03;3.70;;;;;;;2.24;78.18;101345.56;5076548;28;20239;-67
2021/03/08 03:41:49;;;;;;;13.30;3.37;;;;;;;2.24;78.13;101347.31;5081882;28;20307;-67
2021/03/08 03:44:15;;;;;;;16.83;4.23;;;;;;;2.23;77.99;101350.84;5086241;28;20736;-66
2021/03/08 03:46:42;;;;;;;9.83;2.80;;;;;;;2.21;78.26;101350.00;5084718;28;20438;-67
2021/03/08 03:49:08;;;;;;;9.80;3.47;;;;;;;2.19;78.00;101362.28;5085254;28;20229;-67
2021/03/08 03:51:34;;;;;;;12.80;3.27;;;;;;;2.17;78.15;101362.31;5073259;28;20208;-66
2021/03/08 03:54:00;;;;;;;14.90;3.13;;;;;;;2.15;78.09;101371.97;5086802;28;20205;-67
2021/03/08 03:56:30;;;;;;;18.50;3.03;;;;;;;2.14;78.35;101374.66;5086540;28;20640;-66
2021/03/08 03:59:02;;;;;;;8.83;3.60;;;;;;;2.11;78.20;101372.97;5088966;28;20863;-67
2021/03/08 04:01:34;;;;;;;11.77;3.27;;;;;;;2.07;78.11;101373.91;5083579;28;20220;-67
2021/03/08 04:04:03;;;;;;;10.60;3.17;;;;;;;2.05;78.39;101383.56;5082251;28;20253;-67
2021/03/08 04:06:33;;;;;;;10.93;3.33;;;;;;;2.01;78.17;101384.50;5085134;28;20250;-67
2021/03/08 04:09:02;;;;;;;18.10;4.30;;;;;;;1.97;78.30;101388.94;5080694;28;20220;-66
2021/03/08 04:11:31;;;;;;;21.63;5.70;;;;;;;1.90;78.13;101379.44;5085877;28;20200;-66
2021/03/08 04:13:59;;;;;;;22.77;6.00;;;;;;;1.87;78.39;101383.84;5089759;28;20200;-66
2021/03/08 04:16:26;;;;;;;23.90;6.77;;;;;;;1.84;78.49;101386.53;5085572;28;20208;-67
2021/03/08 04:18:54;;;;;;;18.50;6.97;;;;;;;1.80;78.71;101390.94;5079868;28;20236;-66
2021/03/08 04:21:21;;;;;;;25.87;9.20;;;;;;;1.77;78.42;101391.03;5084497;28;20239;-65
2021/03/08 04:23:48;;;;;;;24.67;8.80;;;;;;;1.73;78.15;101389.34;5082849;28;20204;-65
2021/03/08 04:26:16;;;;;;;30.57;9.57;;;;;;;1.69;78.06;101385.00;5085545;28;20212;-65
2021/03/08 04:28:44;;;;;;;29.00;10.13;;;;;;;1.66;78.20;101391.16;5090489;28;20228;-65
2021/03/08 04:31:12;;;;;;;25.03;10.03;;;;;;;1.63;78.04;101392.97;5085827;28;20209;-65
2021/03/08 04:33:39;;;;;;;27.23;9.63;;;;;;;1.61;78.31;101400.03;5086789;28;20692;-65
2021/03/08 04:36:07;;;;;;;25.07;9.70;;;;;;;1.59;78.14;101401.81;5077860;28;20211;-65
2021/03/08 04:38:33;;;;;;;33.93;10.27;;;;;;;1.56;78.26;101393.97;5088400;28;20232;-65
2021/03/08 04:41:00;;;;;;;26.00;9.37;;;;;;;1.56;77.96;101404.47;5088556;28;20746;-65
2021/03/08 04:43:26;;;;;;;23.50;8.90;;;;;;;1.55;77.98;101402.72;5085531;28;20200;-65
2021/03/08 04:45:56;;;;;;;23.93;10.13;;;;;;;1.55;78.17;101411.47;5082683;28;20209;-65
2021/03/08 04:48:22;;;;;;;27.83;8.47;;;;;;;1.55;78.11;101402.72;5091806;28;20200;-65
2021/03/08 04:50:50;;;;;;;22.27;8.00;;;;;;;1.55;77.92;101405.34;5078737;28;20205;-65
2021/03/08 04:53:17;;;;;;;29.53;8.60;;;;;;;1.54;78.01;101414.13;5087453;28;20204;-65
2021/03/08 04:55:44;;;;;;;21.90;8.90;;;;;;;1.52;77.71;101408.03;5080728;28;20713;-65
2021/03/08 04:58:10;;;;;;;24.87;7.50;;;;;;;1.50;77.92;101400.16;5086450;28;20204;-65
2021/03/08 05:00:36;;;;;;;20.67;7.47;;;;;;;1.50;77.69;101407.16;5088623;28;20228;-65
2021/03/08 05:03:04;;;;;;;22.80;7.17;;;;;;;1.47;77.67;101402.81;5086994;28;20224;-65
2021/03/08 05:05:31;;;;;;;18.57;7.83;;;;;;;1.44;77.52;101413.38;5089437;28;20688;-65
2021/03/08 05:08:00;;;;;;;19.97;7.63;;;;;;;1.43;77.97;101421.28;5086140;28;20200;-65
2021/03/08 05:10:27;;;;;;;22.80;6.67;;;;;;;1.38;77.46;101418.72;5088321;28;20591;-65
2021/03/08 05:12:55;;;;;;;15.70;7.63;;;;;;;1.35;77.43;101408.25;5087074;28;20659;-65
2021/03/08 05:15:23;;;;;;;18.10;6.47;;;;;;;1.31;77.50;101409.19;5085209;28;20215;-65
2021/03/08 05:17:52;;;;;;;16.80;6.53;;;;;;;1.28;77.51;101415.34;5085400;28;20209;-65
2021/03/08 05:20:19;;;;;;;14.07;5.80;;;;;;;1.25;77.37;101407.53;5083073;28;20232;-65
2021/03/08 05:22:46;;;;;;;17.03;5.80;;;;;;;1.21;77.16;101411.06;5086804;28;20231;-65
2021/03/08 05:25:13;;;;;;;22.17;7.07;;;;;;;1.18;77.13;101421.59;5089872;28;20211;-65
2021/03/08 05:27:40;;;;;;;14.97;6.33;;;;;;;1.14;77.18;101413.78;5088789;28;20223;-65
2021/03/08 05:30:08;;;;;;;21.17;8.07;;;;;;;1.09;77.24;101416.44;5087901;28;20220;-65
2021/03/08 05:32:37;;;;;;;22.40;7.90;;;;;;;1.06;77.33;101420.88;5086667;28;20196;-65
2021/03/08 05:35:04;;;;;;;15.73;6.07;;;;;;;1.01;77.33;101439.31;5088805;28;20227;-66
2021/03/08 05:37:33;;;;;;;14.10;5.03;;;;;;;0.92;77.10;101435.00;5083946;28;20242;-65
2021/03/08 05:40:01;;;;;;;18.10;5.47;;;;;;;0.82;77.16;101443.88;5083958;28;20277;-65
2021/03/08 05:42:34;;;;;;;12.07;5.00;;;;;;;0.74;77.27;101450.06;5089255;28;20231;-63
2021/03/08 05:45:02;;;;;;;14.23;5.73;;;;;;;0.67;77.28;101452.78;5088934;28;20261;-65
2021/03/08 05:48:00;;;;;;;15.70;5.37;;;;;;;0.64;77.68;101455.44;5086428;28;20200;-66
2021/03/08 05:50:37;;;;;;;14.43;5.57;;;;;;;0.65;77.91;101461.53;5084483;28;20223;-65
2021/03/08 05:53:29;;;;;;;16.87;5.40;;;;;;;0.63;77.69;101458.94;5087792;28;20604;-65
2021/03/08 05:56:17;;;;;;;15.00;5.70;;;;;;;0.63;78.01;101458.06;5082946;28;20214;-66
2021/03/08 05:59:05;;;;;;;23.73;6.17;;;;;;;0.62;77.73;101461.56;5081421;28;20585;-66
2021/03/08 06:01:57;;;;;;;16.57;6.43;;;;;;;0.60;77.82;101469.44;5085502;28;20228;-66
2021/03/08 06:04:32;;;;;;;16.83;5.13;;;;;;;0.60;77.96;101474.69;5083901;28;20682;-66
2021/03/08 06:07:31;;;;;;;12.90;5.50;;;;;;;0.57;78.16;101474.69;5089242;28;20957;-66
2021/03/08 06:10:04;;;;;;;14.10;5.83;;;;;;;0.57;78.25;101485.19;5055590;28;20242;-66
2021/03/08 06:12:32;;;;;;;17.97;6.80;;;;;;;0.55;77.95;101473.84;5088733;28;20196;-66
2021/03/08 06:15:03;;;;;;;16.30;5.90;;;;;;;0.53;78.17;101478.25;5089630;28;20200;-66
2021/03/08 06:17:30;;;;;;;17.27;5.60;;;;;;;0.52;78.28;101481.75;5084483;28;20605;-65
2021/03/08 06:19:59;;;;;;;15.30;5.30;;;;;;;0.52;78.32;101480.91;5076140;28;20232;-66
2021/03/08 06:22:25;;;;;;;17.93;5.53;;;;;;;0.50;78.52;101486.16;5086883;28;20253;-66
2021/03/08 06:24:53;;;;;;;13.53;5.10;;;;;;;0.49;78.35;101484.41;5085638;28;20270;-65
2021/03/08 06:27:21;;;;;;;14.67;5.20;;;;;;;0.46;78.61;101481.81;5082892;28;20674;-65
2021/03/08 06:29:47;;;;;;;13.43;5.40;;;;;;;0.46;78.47;101494.91;5081799;28;20228;-65
2021/03/08 06:32:13;;;;;;;14.50;6.33;;;;;;;0.47;78.72;101498.41;5082499;28;20207;-68
2021/03/08 06:34:40;;;;;;;19.10;6.00;;;;;;;0.48;78.71;101498.38;5084580;28;20200;-67
2021/03/08 06:37:08;;;;;;;17.53;6.50;;;;;;;0.49;78.72;101502.75;5087598;28;20215;-67
2021/03/08 06:39:35;;;;;;;20.53;6.03;;;;;;;0.50;78.77;101494.00;5091831;28;20507;-68
2021/03/08 06:42:01;;;;;;;13.20;6.00;;;;;;;0.51;78.93;101501.00;5088918;28;20651;-67
2021/03/08 06:44:28;;;;;;;14.93;4.97;;;;;;;0.53;78.82;101503.59;5086496;28;20208;-67
2021/03/08 06:46:54;;;;;;;14.73;5.90;;;;;;;0.53;78.88;101507.09;5089459;28;20211;-68
2021/03/08 06:49:20;;;;;;;12.17;5.60;;;;;;;0.54;79.23;101508.81;5088985;28;20288;-68
2021/03/08 06:52:04;;;;;;;14.37;5.97;;;;;;;0.56;79.36;101519.28;5089092;28;20200;-68
2021/03/08 06:54:31;;;;;;;13.30;5.17;;;;;;;0.57;79.08;101515.78;5085044;28;20618;-68
2021/03/08 06:56:57;;;;;;;12.97;6.13;;;;;;;0.58;79.06;101528.88;5080868;28;20200;-68
2021/03/08 06:59:23;;;;;;;13.70;5.33;;;;;;;0.59;79.21;101527.97;5086758;28;20216;-66
2021/03/08 07:01:52;;;;;;;12.37;4.87;;;;;;;0.61;79.29;101530.59;5087512;28;20717;-67
2021/03/08 07:04:21;;;;;;;16.03;5.40;;;;;;;0.60;79.43;101531.47;5085233;28;20262;-66
2021/03/08 07:07:01;;;;;;;13.53;5.10;;;;;;;0.60;79.33;101527.09;5086289;28;20201;-68
2021/03/08 07:09:28;;;;;;;14.43;5.80;;;;;;;0.59;79.10;101527.13;5090527;28;20276;-68
2021/03/08 07:12:09;;;;;;;14.50;6.27;;;;;;;0.58;79.35;101533.25;5090438;28;20203;-67
2021/03/08 07:14:37;;;;;;;11.50;6.03;;;;;;;0.58;79.59;101543.72;5088739;28;20725;-68
2021/03/08 07:17:26;;;;;;;11.53;4.77;;;;;;;0.57;79.31;101537.59;5090989;28;20621;-68
2021/03/08 07:19:53;;;;;;;15.43;5.80;;;;;;;0.58;79.18;101538.47;5083478;28;20956;-67
2021/03/08 07:22:37;;;;;;;14.53;5.87;;;;;;;0.57;79.57;101548.09;5087717;28;20606;-68
2021/03/08 07:25:06;;;;;;;13.40;4.87;;;;;;;0.58;79.64;101546.34;5089191;28;20204;-68
2021/03/08 07:27:42;;;;;;;13.67;5.33;;;;;;;0.58;79.38;101549.84;5087734;28;20208;-68
2021/03/08 07:30:10;;;;;;;18.40;5.67;;;;;;;0.58;79.67;101554.22;5091600;28;20232;-66
2021/03/08 07:32:39;;;;;;;10.30;5.13;;;;;;;0.54;79.36;101553.34;5091791;28;20207;-68
2021/03/08 07:35:08;;;;;;;14.43;5.70;;;;;;;0.56;79.75;101555.97;5090221;28;20231;-68
2021/03/08 07:37:44;;;;;;;17.40;6.20;;;;;;;0.57;79.55;101555.09;5088562;28;20204;-67
2021/03/08 07:40:20;;;;;;;14.77;5.90;;;;;;;0.57;79.79;101549.84;5092392;28;20281;-68
2021/03/08 07:42:46;;;;;;;17.37;5.33;;;;;;;0.58;79.76;101547.22;5088914;28;20220;-68
2021/03/08 07:45:14;;;;;;;12.63;5.83;;;;;;;0.62;80.05;101558.56;5091579;28;20208;-69
2021/03/08 07:47:41;;;;;;;12.17;5.13;;;;;;;0.65;79.77;101556.78;5089365;28;20215;-68
2021/03/08 07:50:25;;;;;;;9.53;4.97;;;;;;;0.71;80.02;101557.63;5090624;28;20224;-68
2021/03/08 07:52:51;;;;;;;14.30;5.03;;;;;;;0.78;79.98;101561.91;5086728;28;20204;-69
2021/03/08 07:55:17;;;;;;;15.00;5.97;;;;;;;0.83;80.03;101566.25;5091618;28;20200;-69
2021/03/08 07:57:44;;;;;;;10.77;4.87;;;;;;;0.90;79.73;101562.66;5090483;28;20212;-68
2021/03/08 08:00:11;;;;;;;13.00;4.90;;;;;;;0.94;79.97;101559.13;5089746;28;20224;-69
2021/03/08 08:02:37;;;;;;;13.57;5.10;;;;;;;1.01;79.92;101571.31;5085429;28;20235;-68
2021/03/08 08:05:05;;;;;;;11.53;5.33;;;;;;;1.08;80.17;101579.97;5085385;28;20583;-70
2021/03/08 08:07:32;;;;;;;10.83;5.10;;;;;;;1.16;80.00;101574.66;5089345;28;20203;-69
2021/03/08 08:10:03;;;;;;;10.07;5.30;;;;;;;1.26;80.12;101573.69;5090510;28;20640;-69
2021/03/08 08:12:33;;;;;;;11.77;5.17;;;;;;;1.37;80.16;101574.44;5088590;28;20239;-69
2021/03/08 08:15:00;;;;;;;12.33;5.30;;;;;;;1.43;79.74;101584.03;5091699;28;20264;-69
2021/03/08 08:17:29;;;;;;;14.00;5.80;;;;;;;1.43;79.67;101578.78;5090866;28;20261;-70
2021/03/08 08:19:58;;;;;;;13.83;5.60;;;;;;;1.43;79.70;101573.53;5089137;28;20220;-69
2021/03/08 08:22:25;;;;;;;8.60;4.73;;;;;;;1.44;79.74;101578.72;5087608;28;20582;-68
2021/03/08 08:24:55;;;;;;;10.80;5.27;;;;;;;1.44;79.44;101578.72;5088969;28;20200;-70
2021/03/08 08:27:22;;;;;;;8.67;5.03;;;;;;;1.47;79.35;101581.31;5088506;28;20480;-69
2021/03/08 08:29:49;;;;;;;13.07;5.50;;;;;;;1.49;78.92;101586.56;5090319;28;20228;-69
2021/03/08 08:32:16;;;;;;;11.73;5.00;;;;;;;1.49;78.98;101583.94;5089112;28;20288;-70
2021/03/08 08:34:44;;;;;;;10.43;5.37;;;;;;;1.48;79.14;101582.19;5089853;28;20211;-69
2021/03/08 08:37:12;;;;;;;14.07;5.60;;;;;;;1.49;79.22;101590.06;5090715;28;20207;-70
2021/03/08 08:39:40;;;;;;;14.70;5.50;;;;;;;1.51;78.93;101592.66;5089365;28;20632;-69
2021/03/08 08:42:16;;;;;;;12.00;5.27;;;;;;;1.61;79.05;101589.06;5089929;28;20220;-70
2021/03/08 08:44:44;;;;;;;10.07;4.90;;;;;;;1.76;78.99;101588.00;5089225;28;20221;-69
2021/03/08 08:47:24;;;;;;;12.77;4.83;;;;;;;1.90;79.01;101597.44;5089933;28;20200;-69
2021/03/08 08:49:53;;;;;;;11.33;5.20;;;;;;;1.99;78.76;101592.06;5087046;28;20307;-69
2021/03/08 08:52:45;;;;;;;12.80;5.27;;;;;;;2.08;78.64;101589.31;5089582;28;20215;-69
2021/03/08 08:55:14;;;;;;;10.13;3.93;;;;;;;2.18;78.52;101594.44;5091134;28;20498;-68
2021/03/08 08:58:00;;;;;;;6.57;3.17;;;;;;;2.20;78.07;101588.28;5088874;28;20204;-69
2021/03/08 09:00:26;;;;;;;9.57;4.00;;;;;;;2.20;77.87;101590.03;5087977;28;20708;-68
2021/03/08 09:02:52;;;;;;;7.63;3.37;;;;;;;2.22;77.85;101583.88;5089619;28;20220;-69
2021/03/08 09:05:38;;;;;;;11.43;4.57;;;;;;;2.32;77.01;101582.88;5091686;28;20200;-69
2021/03/08 09:08:31;;;;;;;15.57;4.70;;;;;;;2.49;77.24;101574.72;5089114;28;20215;-69
2021/03/08 09:10:59;;;;;;;11.63;4.73;;;;;;;2.64;77.24;101576.25;5086606;28;20192;-69
2021/03/08 09:13:27;;;;;;;16.50;4.23;;;;;;;2.70;76.89;101577.00;5087957;28;20241;-68
2021/03/08 09:15:53;;;;;;;12.97;4.87;;;;;;;2.71;76.17;101575.22;5088795;28;20196;-69
2021/03/08 09:18:34;;;;;;;14.67;4.53;;;;;;;2.71;76.31;101577.88;5089058;28;20200;-69
2021/03/08 09:21:22;;;;;;;8.23;3.80;;;;;;;2.69;75.88;101577.88;5089936;28;20218;-69
2021/03/08 09:23:48;;;;;;;10.67;4.63;;;;;;;2.73;75.74;101582.22;5087479;28;20232;-69
2021/03/08 09:26:15;;;;;;;7.13;3.70;;;;;;;2.77;74.93;101576.00;5089952;28;20238;-69
2021/03/08 09:28:49;;;;;;;7.57;4.23;;;;;;;2.83;74.78;101571.56;5089924;28;20226;-68
2021/03/08 09:31:23;;;;;;;7.40;4.50;;;;;;;2.90;74.81;101576.66;5085967;28;20700;-69
2021/03/08 09:33:49;;;;;;;8.80;3.60;;;;;;;3.02;74.91;101578.25;5088219;28;20196;-68
2021/03/08 09:36:17;;;;;;;6.33;3.67;;;;;;;3.14;73.65;101578.88;5089675;28;20208;-69
2021/03/08 09:38:43;;;;;;;10.53;4.20;;;;;;;3.22;73.47;101580.50;5088704;28;20809;-69
2021/03/08 09:41:09;;;;;;;6.80;3.90;;;;;;;3.30;72.99;101586.50;5089359;28;20204;-69
2021/03/08 09:43:38;;;;;;;9.17;4.17;;;;;;;3.31;73.12;101586.47;5088392;28;20664;-69
2021/03/08 09:46:06;;;;;;;8.23;3.60;;;;;;;3.32;72.59;101592.59;5088009;28;20207;-69
2021/03/08 09:48:35;;;;;;;7.63;3.77;;;;;;;3.28;71.67;101588.28;5087445;28;20200;-68
2021/03/08 09:51:06;;;;;;;6.70;3.73;;;;;;;3.23;70.99;101587.47;5087965;28;20208;-68
2021/03/08 09:53:36;;;;;;;7.70;3.57;;;;;;;3.19;71.15;101589.34;5088903;28;20201;-69
2021/03/08 09:56:07;;;;;;;8.40;3.43;;;;;;;3.18;71.16;101587.59;5089161;28;20207;-69
2021/03/08 09:58:33;;;;;;;10.30;3.70;;;;;;;3.19;70.60;101591.97;5089548;28;20212;-67
2021/03/08 10:01:00;;;;;;;9.87;3.87;;;;;;;3.25;70.99;101583.94;5089293;28;20222;-67
2021/03/08 10:03:26;;;;;;;7.57;3.70;;;;;;;3.31;70.92;101581.19;5089006;28;20224;-67
2021/03/08 10:05:54;;;;;;;6.73;4.00;;;;;;;3.41;70.02;101593.28;5087556;28;20227;-67
2021/03/08 10:08:21;;;;;;;7.60;3.93;;;;;;;3.52;70.28;101590.47;5087778;28;20204;-67
2021/03/08 10:10:49;;;;;;;8.27;3.50;;;;;;;3.61;69.50;101589.41;5087230;28;20799;-66
2021/03/08 10:13:16;;;;;;;7.73;3.80;;;;;;;3.68;69.53;101588.41;5086513;28;20237;-67
2021/03/08 10:15:47;;;;;;;8.37;4.00;;;;;;;3.80;68.99;101591.63;5088161;28;20568;-67
2021/03/08 10:18:15;;;;;;;4.83;3.37;;;;;;;3.89;68.53;101595.88;5088818;28;20242;-67
2021/03/08 10:20:50;;;;;;;12.90;3.83;;;;;;;3.90;68.04;101597.59;5088247;28;20204;-67
2021/03/08 10:23:22;;;;;;;6.17;3.37;;;;;;;3.94;68.23;101604.53;5087045;28;20223;-70
2021/03/08 10:25:48;;;;;;;6.70;3.40;;;;;;;3.99;67.94;101602.66;5087224;28;20207;-67
2021/03/08 10:28:14;;;;;;;4.93;3.20;;;;;;;4.04;66.94;101600.81;5087158;28;20204;-67
2021/03/08 10:30:41;;;;;;;8.47;3.43;;;;;;;4.10;66.54;101597.19;5086351;28;20254;-67
2021/03/08 10:33:08;;;;;;;10.30;3.93;;;;;;;4.16;66.64;101597.03;5086344;28;20193;-67
2021/03/08 10:35:39;;;;;;;10.60;3.50;;;;;;;4.23;65.96;101593.38;5085466;28;20755;-69
2021/03/08 10:38:05;;;;;;;8.53;3.17;;;;;;;4.31;65.04;101598.44;5091498;28;20211;-69
2021/03/08 10:40:32;;;;;;;6.33;3.30;;;;;;;4.36;64.61;101597.47;5090207;28;20705;-67
2021/03/08 10:42:58;;;;;;;5.53;3.17;;;;;;;4.40;63.68;101596.50;5092156;28;20694;-68
2021/03/08 10:45:25;;;;;;;4.77;2.50;;;;;;;4.43;62.92;101604.34;5092401;28;20229;-67
2021/03/08 10:48:06;;;;;;;6.63;2.90;;;;;;;4.46;62.59;101592.84;5092185;28;20200;-68
2021/03/08 10:50:41;;;;;;;5.57;2.80;;;;;;;4.48;62.16;101593.66;5090147;28;20716;-68
2021/03/08 10:53:07;;;;;;;3.70;2.00;;;;;;;4.56;61.13;101588.22;5091351;28;20244;-68
2021/03/08 10:55:33;;;;;;;4.53;2.23;;;;;;;4.60;60.19;101584.63;5092291;28;20215;-68
2021/03/08 10:58:00;;;;;;;5.50;2.23;;;;;;;4.61;58.92;101589.84;5089388;28;20215;-68
2021/03/08 11:00:26;;;;;;;4.10;2.20;;;;;;;4.64;58.87;101594.19;5089610;28;20251;-67
2021/03/08 11:02:52;;;;;;;3.03;1.93;;;;;;;4.63;57.42;101590.69;5090113;28;20583;-69
2021/03/08 11:05:20;;;;;;;7.63;2.07;;;;;;;4.68;57.35;101587.91;5090674;28;20206;-68
2021/03/08 11:07:47;;;;;;;4.03;2.00;;;;;;;4.74;56.98;101595.69;5090295;28;20208;-69
2021/03/08 11:10:13;;;;;;;6.10;2.23;;;;;;;4.77;56.33;101599.13;5090872;28;20224;-68
2021/03/08 11:12:40;;;;;;;6.23;2.30;;;;;;;4.82;54.93;101594.63;5092601;28;20205;-68
2021/03/08 11:15:06;;;;;;;3.70;2.10;;;;;;;4.88;54.57;101590.94;5092352;28;20219;-67
2021/03/08 11:17:34;;;;;;;3.10;2.33;;;;;;;4.96;54.33;101590.75;5092132;28;20208;-68
2021/03/08 11:20:06;;;;;;;3.70;2.13;;;;;;;5.00;53.84;101592.44;5092816;28;20227;-68
2021/03/08 11:22:48;;;;;;;4.00;2.20;;;;;;;5.08;54.10;101591.31;5090594;28;20600;-69
2021/03/08 11:25:34;;;;;;;4.13;2.30;;;;;;;5.15;53.13;101600.81;5086695;28;20204;-69
2021/03/08 11:28:02;;;;;;;5.00;2.37;;;;;;;5.23;52.89;101597.97;5090068;28;20223;-69
2021/03/08 11:30:29;;;;;;;5.33;2.07;;;;;;;5.27;52.47;101591.69;5090925;28;20212;-68
2021/03/08 11:32:59;;;;;;;3.27;1.63;;;;;;;5.27;52.38;101581.13;5091450;28;20204;-67
2021/03/08 11:35:27;;;;;;;3.03;1.83;;;;;;;5.29;51.46;101578.44;5091635;28;20231;-65
2021/03/08 11:37:58;;;;;;;2.70;1.63;;;;;;;5.30;51.08;101588.09;5091627;28;20201;-65